Time;durP1;ratioP1;P1;durP2;ratioP2;P2;SDS_P1;SDS_P2;PMS_P1;PMS_P2;Temp;Humidity;BMP_temperature;BMP_pressure;BME280_temperature;BME280_humidity;BME280_pressure;Samples;Min_cycle;Max_cycle;Signal;HPM_P1;HPM_P2
2022/09/22 00:00:24;;;;;;;;;;;;;;;;;;6213550;23;19995;-69
2022/09/22 00:02:49;;;;;;;;;;;;;;;;;;6210442;23;19916;-69
2022/09/22 00:05:15;;;;;;;;;;;;;;;;;;6213658;23;19959;-71
2022/09/22 00:07:40;;;;;;;;;;;;;;;;;;6212781;23;19920;-70
2022/09/22 00:10:06;;;;;;;;;;;;;;;;;;6213072;23;20337;-70
2022/09/22 00:12:32;;;;;;;;;;;;;;;;;;6213402;23;19919;-69
2022/09/22 00:14:57;;;;;;;;;;;;;;;;;;6212779;23;19912;-69
2022/09/22 00:17:23;;;;;;;;;;;;;;;;;;6213451;23;19912;-70
2022/09/22 00:19:48;;;;;;;;;;;;;;;;;;6212871;23;19911;-69
2022/09/22 00:22:14;;;;;;;;;;;;;;;;;;6213115;23;20399;-68
2022/09/22 00:24:41;;;;;;;;;;;;;;;;;;6211992;23;20352;-67
2022/09/22 00:27:07;;;;;;;;;;;;;;;;;;6210202;23;20350;-69
2022/09/22 00:29:33;;;;;;;;;;;;;;;;;;6211883;23;20469;-70
2022/09/22 00:31:59;;;;;;;;;;;;;;;;;;6213149;23;19916;-69
2022/09/22 00:34:24;;;;;;;;;;;;;;;;;;6213204;23;19919;-69
2022/09/22 00:36:50;;;;;;;;;;;;;;;;;;6211594;23;19920;-69
2022/09/22 00:39:16;;;;;;;;;;;;;;;;;;6210496;23;19919;-69
2022/09/22 00:41:41;;;;;;;;;;;;;;;;;;6211819;23;19936;-70
2022/09/22 00:44:07;;;;;;;;;;;;;;;;;;6211492;23;19977;-69
2022/09/22 00:46:33;;;;;;;;;;;;;;;;;;6211904;23;19924;-68
2022/09/22 00:48:59;;;;;;;;;;;;;;;;;;6211957;23;20361;-71
2022/09/22 00:51:24;;;;;;;;;;;;;;;;;;6186244;23;19912;-69
2022/09/22 00:53:50;;;;;;;;;;;;;;;;;;6212603;23;19912;-67
2022/09/22 00:56:15;;;;;;;;;;;;;;;;;;6212488;23;20296;-68
2022/09/22 00:58:41;;;;;;;;;;;;;;;;;;6212168;23;20359;-67
2022/09/22 01:01:08;;;;;;;;;;;;;;;;;;6184979;23;19919;-68
2022/09/22 01:03:33;;;;;;;;;;;;;;;;;;6211672;23;19947;-67
2022/09/22 01:05:59;;;;;;;;;;;;;;;;;;6211438;23;19916;-69
2022/09/22 01:08:24;;;;;;;;;;;;;;;;;;6211666;23;19920;-68
2022/09/22 01:10:50;;;;;;;;;;;;;;;;;;6211422;23;19991;-69
2022/09/22 01:13:16;;;;;;;;;;;;;;;;;;6211552;23;19962;-68
2022/09/22 01:15:41;;;;;;;;;;;;;;;;;;6211573;23;19911;-67
2022/09/22 01:18:07;;;;;;;;;;;;;;;;;;6211138;23;19958;-68
2022/09/22 01:20:32;;;;;;;;;;;;;;;;;;6211566;23;19912;-68
2022/09/22 01:22:58;;;;;;;;;;;;;;;;;;6211217;23;19919;-68
2022/09/22 01:25:23;;;;;;;;;;;;;;;;;;6211410;23;19974;-68
2022/09/22 01:27:49;;;;;;;;;;;;;;;;;;6211476;23;19924;-68
2022/09/22 01:30:14;;;;;;;;;;;;;;;;;;6210936;23;19920;-68
2022/09/22 01:32:40;;;;;;;;;;;;;;;;;;6211447;23;19912;-69
2022/09/22 01:35:06;;;;;;;;;;;;;;;;;;6210925;23;19919;-68
2022/09/22 01:37:31;;;;;;;;;;;;;;;;;;6211044;23;19951;-69
2022/09/22 01:39:57;;;;;;;;;;;;;;;;;;6210658;23;19931;-69
2022/09/22 01:42:23;;;;;;;;;;;;;;;;;;6211272;23;19990;-68
2022/09/22 01:44:49;;;;;;;;;;;;;;;;;;6211087;23;19923;-70
2022/09/22 01:47:14;;;;;;;;;;;;;;;;;;6210950;23;20295;-68
2022/09/22 01:49:40;;;;;;;;;;;;;;;;;;6184672;23;19912;-68
2022/09/22 01:52:06;;;;;;;;;;;;;;;;;;6211619;23;19912;-68
2022/09/22 01:54:32;;;;;;;;;;;;;;;;;;6211164;23;19912;-68
2022/09/22 01:56:57;;;;;;;;;;;;;;;;;;6210945;23;19919;-68
2022/09/22 01:59:23;;;;;;;;;;;;;;;;;;6211167;23;19919;-67
2022/09/22 02:01:49;;;;;;;;;;;;;;;;;;6211363;23;19923;-67
2022/09/22 02:04:14;;;;;;;;;;;;;;;;;;6211115;23;19912;-69
2022/09/22 02:06:40;;;;;;;;;;;;;;;;;;6211040;23;19926;-69
2022/09/22 02:09:06;;;;;;;;;;;;;;;;;;6210660;23;19918;-70
2022/09/22 02:11:31;;;;;;;;;;;;;;;;;;6184578;23;19979;-68
2022/09/22 02:13:57;;;;;;;;;;;;;;;;;;6210655;23;19916;-71
2022/09/22 02:16:22;;;;;;;;;;;;;;;;;;6211362;23;19934;-69
2022/09/22 02:18:48;;;;;;;;;;;;;;;;;;6211349;23;19915;-70
2022/09/22 02:21:13;;;;;;;;;;;;;;;;;;6210821;23;19912;-70
2022/09/22 02:23:39;;;;;;;;;;;;;;;;;;6210837;23;19981;-69
2022/09/22 02:26:05;;;;;;;;;;;;;;;;;;6210751;23;19912;-69
2022/09/22 02:28:31;;;;;;;;;;;;;;;;;;6211661;23;19920;-68
2022/09/22 02:30:56;;;;;;;;;;;;;;;;;;6211169;23;19912;-69
2022/09/22 02:33:22;;;;;;;;;;;;;;;;;;6210626;23;19978;-69
2022/09/22 02:35:48;;;;;;;;;;;;;;;;;;6210570;23;19994;-69
2022/09/22 02:38:13;;;;;;;;;;;;;;;;;;6210566;23;19912;-69
2022/09/22 02:40:39;;;;;;;;;;;;;;;;;;6210621;23;20277;-69
2022/09/22 02:43:04;;;;;;;;;;;;;;;;;;6210548;23;19912;-67
2022/09/22 02:45:30;;;;;;;;;;;;;;;;;;6210728;23;19912;-68
2022/09/22 02:47:56;;;;;;;;;;;;;;;;;;6183588;23;19928;-69
2022/09/22 02:50:21;;;;;;;;;;;;;;;;;;6210241;23;20030;-68
2022/09/22 02:52:47;;;;;;;;;;;;;;;;;;6210670;23;20213;-68
2022/09/22 02:55:13;;;;;;;;;;;;;;;;;;6210253;23;19990;-68
2022/09/22 02:57:38;;;;;;;;;;;;;;;;;;6210486;23;20337;-69
2022/09/22 03:00:04;;;;;;;;;;;;;;;;;;6210133;23;20229;-69
2022/09/22 03:02:30;;;;;;;;;;;;;;;;;;6210600;23;19943;-68
2022/09/22 03:04:56;;;;;;;;;;;;;;;;;;6210478;23;20050;-68
2022/09/22 03:07:22;;;;;;;;;;;;;;;;;;6210499;23;19920;-71
2022/09/22 03:09:48;;;;;;;;;;;;;;;;;;6210530;23;19918;-69
2022/09/22 03:12:13;;;;;;;;;;;;;;;;;;6210445;23;19970;-69
2022/09/22 03:14:39;;;;;;;;;;;;;;;;;;6210470;23;19916;-69
2022/09/22 03:17:04;;;;;;;;;;;;;;;;;;6209868;23;19915;-70
2022/09/22 03:19:30;;;;;;;;;;;;;;;;;;6210336;23;19912;-69
2022/09/22 03:21:55;;;;;;;;;;;;;;;;;;6210571;23;19975;-70
2022/09/22 03:24:21;;;;;;;;;;;;;;;;;;6209650;23;20094;-71
2022/09/22 03:26:47;;;;;;;;;;;;;;;;;;6208950;23;19919;-72
2022/09/22 03:29:12;;;;;;;;;;;;;;;;;;6210023;23;20314;-70
2022/09/22 03:31:38;;;;;;;;;;;;;;;;;;6210594;23;19934;-71
2022/09/22 03:34:03;;;;;;;;;;;;;;;;;;6210004;23;19908;-71
2022/09/22 03:36:29;;;;;;;;;;;;;;;;;;6210161;23;20013;-71
2022/09/22 03:38:55;;;;;;;;;;;;;;;;;;6209943;23;20323;-70
2022/09/22 03:41:20;;;;;;;;;;;;;;;;;;6210212;23;19919;-71
2022/09/22 03:43:46;;;;;;;;;;;;;;;;;;6210252;23;19912;-70
2022/09/22 03:46:13;;;;;;;;;;;;;;;;;;6210101;23;20363;-73
2022/09/22 03:48:38;;;;;;;;;;;;;;;;;;6210119;23;19942;-72
2022/09/22 03:51:04;;;;;;;;;;;;;;;;;;6209828;23;20293;-71
2022/09/22 03:53:29;;;;;;;;;;;;;;;;;;6210393;23;20002;-72
2022/09/22 03:55:55;;;;;;;;;;;;;;;;;;6209894;23;19911;-72
2022/09/22 03:58:21;;;;;;;;;;;;;;;;;;6209997;23;19912;-72
2022/09/22 04:00:46;;;;;;;;;;;;;;;;;;6210461;23;19998;-74
2022/09/22 04:03:12;;;;;;;;;;;;;;;;;;6211839;23;19961;-71
2022/09/22 04:05:38;;;;;;;;;;;;;;;;;;6212085;23;19912;-71
2022/09/22 04:08:03;;;;;;;;;;;;;;;;;;6211747;23;19919;-71
2022/09/22 04:10:29;;;;;;;;;;;;;;;;;;6212017;23;19923;-72
2022/09/22 04:12:54;;;;;;;;;;;;;;;;;;6185628;23;20311;-71
2022/09/22 04:15:20;;;;;;;;;;;;;;;;;;6211883;23;19935;-70
2022/09/22 04:17:45;;;;;;;;;;;;;;;;;;6212008;23;20207;-71
2022/09/22 04:20:11;;;;;;;;;;;;;;;;;;6211839;23;19915;-71
2022/09/22 04:22:37;;;;;;;;;;;;;;;;;;6212112;23;19911;-70
2022/09/22 04:25:02;;;;;;;;;;;;;;;;;;6211770;23;19944;-71
2022/09/22 04:27:28;;;;;;;;;;;;;;;;;;6211082;23;19994;-70
2022/09/22 04:29:54;;;;;;;;;;;;;;;;;;6210759;23;20337;-71
2022/09/22 04:32:20;;;;;;;;;;;;;;;;;;6210543;23;20368;-71
2022/09/22 04:34:46;;;;;;;;;;;;;;;;;;6210710;23;19918;-71
2022/09/22 04:37:12;;;;;;;;;;;;;;;;;;6178678;23;19919;-71
2022/09/22 04:39:38;;;;;;;;;;;;;;;;;;6209574;23;19919;-71
2022/09/22 04:42:03;;;;;;;;;;;;;;;;;;6210567;23;19990;-72
2022/09/22 04:44:29;;;;;;;;;;;;;;;;;;6210778;23;20304;-70
2022/09/22 04:46:56;;;;;;;;;;;;;;;;;;6211422;23;19927;-71
2022/09/22 04:49:21;;;;;;;;;;;;;;;;;;6211573;23;20344;-71
2022/09/22 04:51:47;;;;;;;;;;;;;;;;;;6211157;23;19912;-71
2022/09/22 04:54:13;;;;;;;;;;;;;;;;;;6210138;23;19908;-72
2022/09/22 04:56:39;;;;;;;;;;;;;;;;;;6211851;23;19912;-71
2022/09/22 04:59:04;;;;;;;;;;;;;;;;;;6208139;23;19912;-82
2022/09/22 05:01:30;;;;;;;;;;;;;;;;;;6195672;23;19908;-83
2022/09/22 05:03:55;;;;;;;;;;;;;;;;;;6214227;23;19958;-81
2022/09/22 05:06:21;;;;;;;;;;;;;;;;;;6216216;23;19951;-83
2022/09/22 05:08:46;;;;;;;;;;;;;;;;;;6214213;23;20427;-82
2022/09/22 05:11:12;;;;;;;;;;;;;;;;;;6220018;23;19993;-85
2022/09/22 05:13:39;;;;;;;;;;;;;;;;;;6190096;23;19912;-83
2022/09/22 05:16:05;;;;;;;;;;;;;;;;;;6224159;23;19946;-86
2022/09/22 05:18:31;;;;;;;;;;;;;;;;;;6219003;23;19912;-81
2022/09/22 05:20:58;;;;;;;;;;;;;;;;;;6220963;23;19912;-84
2022/09/22 05:23:24;;;;;;;;;;;;;;;;;;6223436;23;19918;-84
2022/09/22 05:25:49;;;;;;;;;;;;;;;;;;6221232;23;19916;-81
2022/09/22 05:28:15;;;;;;;;;;;;;;;;;;6214272;23;19947;-83
2022/09/22 05:30:40;;;;;;;;;;;;;;;;;;6221320;23;19966;-84
2022/09/22 05:33:06;;;;;;;;;;;;;;;;;;6218306;23;19927;-81
2022/09/22 05:35:32;;;;;;;;;;;;;;;;;;6223730;23;19911;-82
2022/09/22 05:37:57;;;;;;;;;;;;;;;;;;6203947;23;19935;-81
2022/09/22 05:40:24;;;;;;;;;;;;;;;;;;6230499;23;19962;-81
2022/09/22 05:42:50;;;;;;;;;;;;;;;;;;6226876;23;19916;-81
2022/09/22 05:45:17;;;;;;;;;;;;;;;;;;6226471;23;19903;-86
2022/09/22 05:47:42;;;;;;;;;;;;;;;;;;6215310;23;19920;-83
2022/09/22 05:50:08;;;;;;;;;;;;;;;;;;6215321;23;19931;-82
2022/09/22 05:52:33;;;;;;;;;;;;;;;;;;6220134;23;19919;-85
2022/09/22 05:54:59;;;;;;;;;;;;;;;;;;6227335;23;19946;-86
2022/09/22 05:57:26;;;;;;;;;;;;;;;;;;6216023;23;20447;-81
2022/09/22 05:59:52;;;;;;;;;;;;;;;;;;6210718;23;19918;-79
2022/09/22 06:02:17;;;;;;;;;;;;;;;;;;6223588;23;19912;-85
2022/09/22 06:04:43;;;;;;;;;;;;;;;;;;6232443;23;19927;-83
2022/09/22 06:07:09;;;;;;;;;;;;;;;;;;6234075;23;19912;-85
2022/09/22 06:09:35;;;;;;;;;;;;;;;;;;6217122;23;19916;-84
2022/09/22 06:12:00;;;;;;;;;;;;;;;;;;6231803;23;19923;-84
2022/09/22 06:14:26;;;;;;;;;;;;;;;;;;6235164;23;19935;-85
2022/09/22 06:16:52;;;;;;;;;;;;;;;;;;6230160;23;19916;-87
2022/09/22 06:19:17;;;;;;;;;;;;;;;;;;6233998;22;20436;-83
2022/09/22 06:21:44;;;;;;;;;;;;;;;;;;6238624;22;19899;-81
2022/09/22 06:24:10;;;;;;;;;;;;;;;;;;6232309;22;19910;-81
2022/09/22 06:26:35;;;;;;;;;;;;;;;;;;6234269;23;20399;-85
2022/09/22 06:29:01;;;;;;;;;;;;;;;;;;6236818;23;19916;-85
2022/09/22 06:31:27;;;;;;;;;;;;;;;;;;6232037;23;19916;-83
2022/09/22 06:33:53;;;;;;;;;;;;;;;;;;6196952;23;20327;-83
2022/09/22 06:36:40;;;;;;;;;;;;;;;;;;6218186;23;20244;-84
2022/09/22 06:39:04;;;;;;;;;;;;;;;;;;6215599;23;19967;-79
2022/09/22 06:41:30;;;;;;;;;;;;;;;;;;6210697;23;19912;-82
2022/09/22 06:44:00;;;;;;;;;;;;;;;;;;6195797;23;19919;-83
2022/09/22 06:46:26;;;;;;;;;;;;;;;;;;6218770;23;19987;-83
2022/09/22 06:48:52;;;;;;;;;;;;;;;;;;6185770;23;20007;-82
2022/09/22 06:51:18;;;;;;;;;;;;;;;;;;6210929;23;19937;-82
2022/09/22 06:53:44;;;;;;;;;;;;;;;;;;6213811;23;19953;-81
2022/09/22 06:56:09;;;;;;;;;;;;;;;;;;6210935;23;20406;-81
2022/09/22 06:58:35;;;;;;;;;;;;;;;;;;6209772;23;20348;-82
2022/09/22 07:01:06;;;;;;;;;;;;;;;;;;6210025;23;19919;-78
2022/09/22 07:03:37;;;;;;;;;;;;;;;;;;6211795;23;19970;-78
2022/09/22 07:06:02;;;;;;;;;;;;;;;;;;6211458;23;19918;-77
2022/09/22 07:08:28;;;;;;;;;;;;;;;;;;6223812;23;19923;-86
2022/09/22 07:10:54;;;;;;;;;;;;;;;;;;6214998;23;19927;-87
2022/09/22 07:13:20;;;;;;;;;;;;;;;;;;6212019;23;19896;-89
2022/09/22 07:15:46;;;;;;;;;;;;;;;;;;6235387;23;19915;-87
2022/09/22 07:18:11;;;;;;;;;;;;;;;;;;6232762;23;20307;-83
2022/09/22 07:20:37;;;;;;;;;;;;;;;;;;6236174;23;20364;-87
2022/09/22 07:23:03;;;;;;;;;;;;;;;;;;6229427;23;19920;-82
2022/09/22 07:25:28;;;;;;;;;;;;;;;;;;6212504;23;19962;-81
2022/09/22 07:27:56;;;;;;;;;;;;;;;;;;6210287;23;20308;-78
2022/09/22 07:30:22;;;;;;;;;;;;;;;;;;6228089;22;19958;-81
2022/09/22 07:32:48;;;;;;;;;;;;;;;;;;6200011;23;19934;-85
2022/09/22 07:35:14;;;;;;;;;;;;;;;;;;6227801;23;19896;-83
2022/09/22 07:43:03;;;;;;;;;;;;;;;;;;6212519;22;19904;-85
2022/09/22 07:45:29;;;;;;;;;;;;;;;;;;6242603;23;19916;-86
2022/09/22 07:50:59;;;;;;;;;;;;;;;;;;6178775;23;19940;-87
2022/09/22 07:53:26;;;;;;;;;;;;;;;;;;6218907;22;19999;-83
2022/09/22 07:55:51;;;;;;;;;;;;;;;;;;6223681;22;20259;-79
2022/09/22 07:58:17;;;;;;;;;;;;;;;;;;6211517;23;19962;-79
2022/09/22 08:00:42;;;;;;;;;;;;;;;;;;6210794;23;20349;-80
2022/09/22 08:03:08;;;;;;;;;;;;;;;;;;6217492;23;19922;-78
2022/09/22 08:05:34;;;;;;;;;;;;;;;;;;6184255;23;19908;-78
2022/09/22 08:08:01;;;;;;;;;;;;;;;;;;6183539;23;19923;-78
2022/09/22 08:10:26;;;;;;;;;;;;;;;;;;6209633;23;19915;-79
2022/09/22 08:12:52;;;;;;;;;;;;;;;;;;6215250;23;19926;-79
2022/09/22 08:15:21;;;;;;;;;;;;;;;;;;6220792;23;20348;-78
2022/09/22 08:17:46;;;;;;;;;;;;;;;;;;6214631;23;19923;-79
2022/09/22 08:20:12;;;;;;;;;;;;;;;;;;6208622;23;19911;-79
2022/09/22 08:22:37;;;;;;;;;;;;;;;;;;6208669;23;19957;-79
2022/09/22 08:25:03;;;;;;;;;;;;;;;;;;6208547;23;20183;-79
2022/09/22 08:27:29;;;;;;;;;;;;;;;;;;6208411;23;19919;-79
2022/09/22 08:29:55;;;;;;;;;;;;;;;;;;6208805;23;19912;-79
2022/09/22 08:32:20;;;;;;;;;;;;;;;;;;6208133;23;19958;-78
2022/09/22 08:34:46;;;;;;;;;;;;;;;;;;6208620;23;19916;-79
2022/09/22 08:37:12;;;;;;;;;;;;;;;;;;6208406;23;19912;-79
2022/09/22 08:39:38;;;;;;;;;;;;;;;;;;6208694;23;20236;-79
2022/09/22 08:42:06;;;;;;;;;;;;;;;;;;6209017;23;20317;-78
2022/09/22 08:44:31;;;;;;;;;;;;;;;;;;6210560;23;19911;-79
2022/09/22 08:46:57;;;;;;;;;;;;;;;;;;6210564;23;20261;-78
2022/09/22 08:52:07;;;;;;;;;;;;;;;;;;6210524;23;19912;-79
2022/09/22 08:54:34;;;;;;;;;;;;;;;;;;6210293;23;20340;-79
2022/09/22 08:56:59;;;;;;;;;;;;;;;;;;6210444;23;19947;-79
2022/09/22 08:59:25;;;;;;;;;;;;;;;;;;6210455;23;20280;-78
2022/09/22 09:01:51;;;;;;;;;;;;;;;;;;6210498;23;20349;-78
2022/09/22 09:04:17;;;;;;;;;;;;;;;;;;6210706;23;19912;-79
2022/09/22 09:06:42;;;;;;;;;;;;;;;;;;6210997;23;19919;-78
2022/09/22 09:09:08;;;;;;;;;;;;;;;;;;6184336;23;20353;-79
2022/09/22 09:11:34;;;;;;;;;;;;;;;;;;6209668;23;19911;-79
2022/09/22 09:13:59;;;;;;;;;;;;;;;;;;6211371;23;19907;-79
2022/09/22 09:16:25;;;;;;;;;;;;;;;;;;6211276;23;19912;-78
2022/09/22 09:18:50;;;;;;;;;;;;;;;;;;6212357;23;19919;-78
2022/09/22 09:21:16;;;;;;;;;;;;;;;;;;6220135;23;19960;-78
2022/09/22 09:23:41;;;;;;;;;;;;;;;;;;6224420;23;19912;-79
2022/09/22 09:26:07;;;;;;;;;;;;;;;;;;6223995;23;19918;-79
2022/09/22 09:28:33;;;;;;;;;;;;;;;;;;6210741;23;20045;-79
2022/09/22 09:31:01;;;;;;;;;;;;;;;;;;6210317;23;19940;-79
2022/09/22 09:33:27;;;;;;;;;;;;;;;;;;6210574;23;19916;-79
2022/09/22 09:35:52;;;;;;;;;;;;;;;;;;6209950;23;19958;-78
2022/09/22 09:38:18;;;;;;;;;;;;;;;;;;6215791;23;19950;-87
2022/09/22 09:40:44;;;;;;;;;;;;;;;;;;6231487;23;19912;-83
2022/09/22 09:43:10;;;;;;;;;;;;;;;;;;6232374;23;19912;-82
2022/09/22 09:45:36;;;;;;;;;;;;;;;;;;6216724;23;19923;-85
2022/09/22 09:48:01;;;;;;;;;;;;;;;;;;6234767;23;19962;-90
2022/09/22 09:50:30;;;;;;;;;;;;;;;;;;6238377;23;19912;-85
2022/09/22 09:52:57;;;;;;;;;;;;;;;;;;6239855;23;19931;-84
2022/09/22 09:55:24;;;;;;;;;;;;;;;;;;6240082;23;19896;-85
2022/09/22 09:57:50;;;;;;;;;;;;;;;;;;6235828;23;19939;-84
2022/09/22 10:00:30;;;;;;;;;;;;;;;;;;6202190;23;20282;-82
2022/09/22 10:02:56;;;;;;;;;;;;;;;;;;6218727;23;19916;-84
2022/09/22 10:05:25;;;;;;;;;;;;;;;;;;6232766;23;20272;-86
2022/09/22 10:07:51;;;;;;;;;;;;;;;;;;6231735;23;19935;-81
2022/09/22 10:10:16;;;;;;;;;;;;;;;;;;6220774;23;19931;-80
2022/09/22 10:12:42;;;;;;;;;;;;;;;;;;6217503;23;19911;-81
2022/09/22 10:15:07;;;;;;;;;;;;;;;;;;6208381;23;19966;-82
2022/09/22 10:17:33;;;;;;;;;;;;;;;;;;6209970;23;19912;-80
2022/09/22 10:19:58;;;;;;;;;;;;;;;;;;6210117;23;19912;-81
2022/09/22 10:22:24;;;;;;;;;;;;;;;;;;6210274;23;20325;-80
2022/09/22 10:24:49;;;;;;;;;;;;;;;;;;6211572;23;20422;-82
2022/09/22 10:27:17;;;;;;;;;;;;;;;;;;6219625;23;19927;-83
2022/09/22 10:29:42;;;;;;;;;;;;;;;;;;6213205;23;20007;-83
2022/09/22 10:32:08;;;;;;;;;;;;;;;;;;6212403;23;19911;-82
2022/09/22 10:34:33;;;;;;;;;;;;;;;;;;6212009;23;19911;-81
2022/09/22 10:36:59;;;;;;;;;;;;;;;;;;6210176;23;19918;-80
2022/09/22 10:39:25;;;;;;;;;;;;;;;;;;6210929;23;20340;-81
2022/09/22 10:41:50;;;;;;;;;;;;;;;;;;6210949;23;19912;-81
2022/09/22 10:44:16;;;;;;;;;;;;;;;;;;6210086;23;19939;-79
2022/09/22 10:46:41;;;;;;;;;;;;;;;;;;6207710;23;20246;-79
2022/09/22 10:49:07;;;;;;;;;;;;;;;;;;6208871;23;20244;-78
2022/09/22 10:51:33;;;;;;;;;;;;;;;;;;6211090;23;20364;-79
2022/09/22 10:53:59;;;;;;;;;;;;;;;;;;6184329;23;20018;-78
2022/09/22 10:56:25;;;;;;;;;;;;;;;;;;6209085;23;19919;-77
2022/09/22 10:58:50;;;;;;;;;;;;;;;;;;6184526;23;19912;-79
2022/09/22 11:01:16;;;;;;;;;;;;;;;;;;6183698;23;19998;-78
2022/09/22 11:03:41;;;;;;;;;;;;;;;;;;6210613;23;19912;-79
2022/09/22 11:14:21;;;;;;;;;;;;;;;;;;6210623;23;19990;-79
2022/09/22 11:16:46;;;;;;;;;;;;;;;;;;6213708;23;20007;-84
2022/09/22 11:19:12;;;;;;;;;;;;;;;;;;6223352;23;19962;-85
2022/09/22 11:21:37;;;;;;;;;;;;;;;;;;6222332;23;19912;-84
2022/09/22 11:24:05;;;;;;;;;;;;;;;;;;6222933;23;19912;-80
2022/09/22 11:26:31;;;;;;;;;;;;;;;;;;6214574;23;19932;-81
2022/09/22 11:28:57;;;;;;;;;;;;;;;;;;6210363;23;19916;-81
2022/09/22 11:31:23;;;;;;;;;;;;;;;;;;6210670;23;19923;-80
2022/09/22 11:33:48;;;;;;;;;;;;;;;;;;6213343;23;19917;-80
2022/09/22 11:36:14;;;;;;;;;;;;;;;;;;6210611;23;19912;-81
2022/09/22 11:38:40;;;;;;;;;;;;;;;;;;6211052;23;19912;-81
2022/09/22 11:41:05;;;;;;;;;;;;;;;;;;6211078;23;19915;-80
2022/09/22 11:43:31;;;;;;;;;;;;;;;;;;6209161;23;19912;-80
2022/09/22 11:45:57;;;;;;;;;;;;;;;;;;6210978;23;20351;-81
2022/09/22 11:48:22;;;;;;;;;;;;;;;;;;6210120;23;19954;-81
2022/09/22 11:50:48;;;;;;;;;;;;;;;;;;6210522;23;19912;-81
2022/09/22 11:53:13;;;;;;;;;;;;;;;;;;6210303;23;19919;-81
2022/09/22 11:55:39;;;;;;;;;;;;;;;;;;6210596;23;19911;-80
2022/09/22 11:58:07;;;;;;;;;;;;;;;;;;6210827;23;20015;-80
2022/09/22 12:00:32;;;;;;;;;;;;;;;;;;6210720;23;19912;-80
2022/09/22 12:02:58;;;;;;;;;;;;;;;;;;6212310;23;20327;-80
2022/09/22 12:05:25;;;;;;;;;;;;;;;;;;6223142;23;19957;-79
2022/09/22 12:07:52;;;;;;;;;;;;;;;;;;6187349;23;20268;-80
2022/09/22 12:10:18;;;;;;;;;;;;;;;;;;6210839;23;19951;-81
2022/09/22 12:12:47;;;;;;;;;;;;;;;;;;6210229;23;19919;-80
2022/09/22 12:15:12;;;;;;;;;;;;;;;;;;6211334;23;19912;-82
2022/09/22 12:17:38;;;;;;;;;;;;;;;;;;6211466;23;20363;-81
2022/09/22 12:20:04;;;;;;;;;;;;;;;;;;6211665;23;19912;-81
2022/09/22 12:22:30;;;;;;;;;;;;;;;;;;6222196;23;19931;-86
2022/09/22 12:24:55;;;;;;;;;;;;;;;;;;6240375;23;19939;-86
2022/09/22 12:27:21;;;;;;;;;;;;;;;;;;6241153;23;19908;-87
2022/09/22 12:29:46;;;;;;;;;;;;;;;;;;6238930;23;19908;-86
2022/09/22 12:32:12;;;;;;;;;;;;;;;;;;6224620;23;19921;-83
2022/09/22 12:34:38;;;;;;;;;;;;;;;;;;6221236;23;20413;-84
2022/09/22 12:37:03;;;;;;;;;;;;;;;;;;6219166;23;19961;-82
2022/09/22 12:39:29;;;;;;;;;;;;;;;;;;6197736;23;19938;-84
2022/09/22 12:41:55;;;;;;;;;;;;;;;;;;6223990;23;19912;-84
2022/09/22 12:44:21;;;;;;;;;;;;;;;;;;6222075;23;19915;-85
2022/09/22 12:46:47;;;;;;;;;;;;;;;;;;6223502;23;19912;-83
2022/09/22 12:49:13;;;;;;;;;;;;;;;;;;6220966;23;19919;-85
2022/09/22 12:51:38;;;;;;;;;;;;;;;;;;6222959;23;19980;-83
2022/09/22 12:54:04;;;;;;;;;;;;;;;;;;6228580;23;19920;-82
2022/09/22 12:56:30;;;;;;;;;;;;;;;;;;6206313;23;19912;-84
2022/09/22 12:58:55;;;;;;;;;;;;;;;;;;6234298;23;19960;-83
2022/09/22 13:01:21;;;;;;;;;;;;;;;;;;6226103;23;19919;-85
2022/09/22 13:03:46;;;;;;;;;;;;;;;;;;6222231;23;20356;-84
2022/09/22 13:06:12;;;;;;;;;;;;;;;;;;6226703;23;19912;-84
2022/09/22 13:08:37;;;;;;;;;;;;;;;;;;6228447;23;19920;-85
2022/09/22 13:11:03;;;;;;;;;;;;;;;;;;6229292;23;19930;-83
2022/09/22 13:13:29;;;;;;;;;;;;;;;;;;6228884;23;19912;-85
2022/09/22 13:15:56;;;;;;;;;;;;;;;;;;6228678;23;20352;-83
2022/09/22 13:18:21;;;;;;;;;;;;;;;;;;6221831;23;19918;-84
2022/09/22 13:20:47;;;;;;;;;;;;;;;;;;6222289;23;20352;-83
2022/09/22 13:23:12;;;;;;;;;;;;;;;;;;6223084;23;19919;-84
2022/09/22 13:25:38;;;;;;;;;;;;;;;;;;6226438;23;19912;-83
2022/09/22 13:28:04;;;;;;;;;;;;;;;;;;6225474;23;19940;-81
2022/09/22 13:30:31;;;;;;;;;;;;;;;;;;6227331;23;19912;-86
2022/09/22 13:32:56;;;;;;;;;;;;;;;;;;6228605;23;19927;-84
2022/09/22 13:35:22;;;;;;;;;;;;;;;;;;6222180;23;19912;-84
2022/09/22 13:37:48;;;;;;;;;;;;;;;;;;6227556;23;19955;-84
2022/09/22 13:40:13;;;;;;;;;;;;;;;;;;6224799;23;19969;-83
2022/09/22 13:42:39;;;;;;;;;;;;;;;;;;6227301;23;19954;-85
2022/09/22 13:45:05;;;;;;;;;;;;;;;;;;6219873;23;19911;-84
2022/09/22 13:47:31;;;;;;;;;;;;;;;;;;6220218;23;19972;-83
2022/09/22 13:49:57;;;;;;;;;;;;;;;;;;6194212;23;19916;-83
2022/09/22 13:52:23;;;;;;;;;;;;;;;;;;6221762;23;19991;-83
2022/09/22 13:54:49;;;;;;;;;;;;;;;;;;6220536;23;19920;-83
2022/09/22 13:57:14;;;;;;;;;;;;;;;;;;6217711;23;20251;-83
2022/09/22 13:59:40;;;;;;;;;;;;;;;;;;6224549;23;19922;-82
2022/09/22 14:02:06;;;;;;;;;;;;;;;;;;6228623;23;19931;-82
2022/09/22 14:04:33;;;;;;;;;;;;;;;;;;6229721;23;19912;-83
2022/09/22 14:06:58;;;;;;;;;;;;;;;;;;6222262;23;19920;-83
2022/09/22 14:09:24;;;;;;;;;;;;;;;;;;6217938;23;19966;-83
2022/09/22 14:11:50;;;;;;;;;;;;;;;;;;6227957;23;19976;-83
2022/09/22 14:14:15;;;;;;;;;;;;;;;;;;6229509;23;19912;-85
2022/09/22 14:16:41;;;;;;;;;;;;;;;;;;6225688;23;19896;-83
2022/09/22 14:19:07;;;;;;;;;;;;;;;;;;6229559;23;19927;-85
2022/09/22 14:21:32;;;;;;;;;;;;;;;;;;6227816;23;19918;-82
2022/09/22 14:23:58;;;;;;;;;;;;;;;;;;6230956;23;19919;-86
2022/09/22 14:26:24;;;;;;;;;;;;;;;;;;6235561;23;19995;-84
2022/09/22 14:28:49;;;;;;;;;;;;;;;;;;6235666;23;19920;-84
2022/09/22 14:31:15;;;;;;;;;;;;;;;;;;6232164;23;19952;-83
2022/09/22 14:33:41;;;;;;;;;;;;;;;;;;6224844;23;19919;-85
2022/09/22 14:36:07;;;;;;;;;;;;;;;;;;6230119;23;19916;-83
2022/09/22 14:38:33;;;;;;;;;;;;;;;;;;6228605;23;19923;-84
2022/09/22 14:41:00;;;;;;;;;;;;;;;;;;6229431;23;19912;-86
2022/09/22 14:43:26;;;;;;;;;;;;;;;;;;6198321;23;19912;-83
2022/09/22 14:45:52;;;;;;;;;;;;;;;;;;6226171;23;20245;-85
2022/09/22 14:48:17;;;;;;;;;;;;;;;;;;6227669;23;19927;-85
2022/09/22 14:50:44;;;;;;;;;;;;;;;;;;6236657;23;19911;-88
2022/09/22 14:53:10;;;;;;;;;;;;;;;;;;6237946;23;19919;-86
2022/09/22 14:55:37;;;;;;;;;;;;;;;;;;6239170;23;19916;-84
2022/09/22 14:58:03;;;;;;;;;;;;;;;;;;6230336;23;19912;-84
2022/09/22 15:03:14;;;;;;;;;;;;;;;;;;6226795;23;19912;-84
2022/09/22 15:05:40;;;;;;;;;;;;;;;;;;6228035;23;19911;-86
2022/09/22 15:08:05;;;;;;;;;;;;;;;;;;6228103;23;19920;-84
2022/09/22 15:10:31;;;;;;;;;;;;;;;;;;6224569;23;19918;-81
2022/09/22 15:12:58;;;;;;;;;;;;;;;;;;6181108;23;20003;-83
2022/09/22 15:15:25;;;;;;;;;;;;;;;;;;6218795;23;19922;-81
2022/09/22 15:20:40;;;;;;;;;;;;;;;;;;6212189;23;19912;-80
2022/09/22 15:23:05;;;;;;;;;;;;;;;;;;6210320;23;20018;-81
2022/09/22 15:25:31;;;;;;;;;;;;;;;;;;6209793;23;20217;-81
2022/09/22 15:27:56;;;;;;;;;;;;;;;;;;6209862;23;20285;-81
2022/09/22 15:30:22;;;;;;;;;;;;;;;;;;6209453;23;19966;-81
2022/09/22 15:32:48;;;;;;;;;;;;;;;;;;6208951;23;19912;-81
2022/09/22 15:35:13;;;;;;;;;;;;;;;;;;6210246;23;19986;-81
2022/09/22 15:37:41;;;;;;;;;;;;;;;;;;6217913;23;19960;-81
2022/09/22 15:40:06;;;;;;;;;;;;;;;;;;6212900;23;20380;-73
2022/09/22 15:42:32;;;;;;;;;;;;;;;;;;6209421;23;19923;-79
2022/09/22 15:44:57;;;;;;;;;;;;;;;;;;6209692;23;19991;-79
2022/09/22 15:47:23;;;;;;;;;;;;;;;;;;6207863;23;19927;-79
2022/09/22 15:49:51;;;;;;;;;;;;;;;;;;6182949;23;20316;-81
2022/09/22 15:52:17;;;;;;;;;;;;;;;;;;6210569;23;19920;-82
2022/09/22 15:54:42;;;;;;;;;;;;;;;;;;6222709;23;19966;-81
2022/09/22 15:57:08;;;;;;;;;;;;;;;;;;6223006;23;20082;-81
2022/09/22 15:59:34;;;;;;;;;;;;;;;;;;6223705;23;19912;-82
2022/09/22 16:02:00;;;;;;;;;;;;;;;;;;6216280;23;20349;-81
2022/09/22 16:04:32;;;;;;;;;;;;;;;;;;6229003;23;19912;-84
2022/09/22 16:07:01;;;;;;;;;;;;;;;;;;6227167;23;19924;-83
2022/09/22 16:09:26;;;;;;;;;;;;;;;;;;6217134;23;19970;-82
2022/09/22 16:11:53;;;;;;;;;;;;;;;;;;6181502;23;20361;-81
2022/09/22 16:14:21;;;;;;;;;;;;;;;;;;6209968;23;19944;-79
2022/09/22 16:16:48;;;;;;;;;;;;;;;;;;6220594;23;19912;-84
2022/09/22 16:19:13;;;;;;;;;;;;;;;;;;6222200;23;20023;-83
2022/09/22 16:21:39;;;;;;;;;;;;;;;;;;6222307;23;19956;-84
2022/09/22 16:24:06;;;;;;;;;;;;;;;;;;6215033;23;19911;-82
2022/09/22 16:26:32;;;;;;;;;;;;;;;;;;6209239;23;20401;-80
2022/09/22 16:28:57;;;;;;;;;;;;;;;;;;6185789;23;19927;-79
2022/09/22 16:31:23;;;;;;;;;;;;;;;;;;6219410;23;19916;-80
2022/09/22 16:33:49;;;;;;;;;;;;;;;;;;6222757;23;19943;-80
2022/09/22 16:36:14;;;;;;;;;;;;;;;;;;6223423;23;19912;-81
2022/09/22 16:38:40;;;;;;;;;;;;;;;;;;6211749;23;20009;-81
2022/09/22 16:41:06;;;;;;;;;;;;;;;;;;6187031;23;19916;-80
2022/09/22 16:43:31;;;;;;;;;;;;;;;;;;6211046;23;19919;-79
2022/09/22 16:48:41;;;;;;;;;;;;;;;;;;6196809;23;19920;-81
2022/09/22 16:51:08;;;;;;;;;;;;;;;;;;6209329;23;20383;-80
2022/09/22 16:53:34;;;;;;;;;;;;;;;;;;6186977;23;19919;-80
2022/09/22 16:55:59;;;;;;;;;;;;;;;;;;6209731;23;19912;-79
2022/09/22 16:58:25;;;;;;;;;;;;;;;;;;6172188;23;20359;-79
2022/09/22 17:00:50;;;;;;;;;;;;;;;;;;6200728;23;19912;-79
2022/09/22 17:03:17;;;;;;;;;;;;;;;;;;6209606;23;20407;-80